• Join FlightAware (Why Join?)
  • Login
  • US Flag 
10:17PM EDT


 

Airport Tracker/Info


-or-


 

Live Flight TrackerFlight Track Log ✈ DAL268 ✈ 01-Jun-2013 ✈ KJFK - LLBG / TLV

Flight Track Log - Related Links

Times and Time Zones

All times are in EDT time to prevent confusion due to time zone crossing. See the DAL268 flight status page for this flight to view local times or setup timezone preferences in your user account.

Time Position Orientation Groundspeed Altitude Reporting Facility
EDT Latitude Longitude Course Direction KTS MPH feet Rate Location/Type
11:45PM 40.6370 -73.7800 North  Level FlightAware
11:46PM 40.6370 -73.7790 90° East 11 13  Level FlightAware
11:47PM 40.6380 -73.7790 360° North 2 2  Level FlightAware
11:48PM 40.6370 -73.7790 180° South 12 14 60 Level FlightAware
11:49PM 40.6360 -73.7790 180° South 2 2 60 Level FlightAware
11:51PM 40.5368 -73.4770 114° Southeast  Level FlightAware Approximate
11:52PM 40.4833 -73.3126 90° East  Level FlightAware Approximate
11:53PM 40.4342 -73.1464 119° Southeast  Level FlightAware Approximate
11:54PM 40.3833 -72.9819 90° East  Level FlightAware Approximate
11:54PM 40.6350 -73.7780 90° East 17 20  Level FlightAware
11:55PM 40.6350 -73.7770 90° East 14 16 60 Level FlightAware
11:55PM 40.6360 -73.7760 37° Northeast 24 28 120 Level FlightAware
11:55PM 40.6370 -73.7760 360° North 28 32 120 Level FlightAware
11:56PM 40.6390 -73.7740 37° Northeast 32 37 120 Level FlightAware
11:56PM 40.6400 -73.7730 37° Northeast 15 17 120 Level FlightAware
11:57PM 40.6410 -73.7720 37° Northeast 16 18 120 Level FlightAware
11:57PM 40.6430 -73.7710 21° North 29 33 120 Level FlightAware
11:58PM 40.6440 -73.7700 37° Northeast 27 31 180 Level FlightAware
11:58PM 40.6450 -73.7690 37° Northeast 28 32 180 Level FlightAware
11:59PM 40.6470 -73.7690 360° North 29 33 240 Level FlightAware
11:59PM 40.6480 -73.7680 37° Northeast 29 33 240 Level FlightAware
11:59PM 40.6490 -73.7670 37° Northeast 22 25 300 Level FlightAware
12:00AM 40.6490 -73.7660 90° East 15 17 360 Level FlightAware
12:00AM 40.6490 -73.7650 90° East 22 25 420 Level FlightAware
12:01AM 40.6440 -73.7690 211° Southwest 86 99 600 Level FlightAware
12:02AM 40.6140 -73.7910 209° Southwest 160 184 900 1,320 Climbing FlightAware
12:02AM 40.5950 -73.8030 206° Southwest 170 196 1,700 1,320 Climbing FlightAware
12:02AM 40.5860 -73.8080 203° Southwest 184 212 1,800 780 Climbing FlightAware
12:03AM 40.5560 -73.7980 166° South 253 291 2,300 900 Climbing FlightAware
12:03AM 40.5490 -73.7850 125° Southeast 268 308 2,500 1,200 Climbing FlightAware
12:04AM 40.5340 -73.7370 112° Southeast 297 342 3,100 1,380 Climbing FlightAware
12:04AM 40.5250 -73.7120 115° Southeast 304 350 3,600 2,160 Climbing FlightAware
12:04AM 40.5080 -73.6610 114° Southeast 308 354 4,700 1,860 Climbing FlightAware
12:05AM 40.4975 -73.6318 115° Southeast 309 356 5,000 900 Climbing FlightAware ADS-B
12:05AM 40.4957 -73.6247 108° East 310 357 5,000  Level FlightAware ADS-B
12:05AM 40.4940 -73.6135 101° East 310 357 5,000  Level FlightAware ADS-B
12:05AM 40.4937 -73.6079 94° East 311 358 5,000  Level FlightAware ADS-B
12:05AM 40.4940 -73.5965 88° East 312 359 5,000  Level FlightAware ADS-B
12:05AM 40.4950 -73.5890 80° East 313 360 5,000  Level FlightAware ADS-B
12:05AM 40.4961 -73.5815 79° East 314 361 5,000  Level FlightAware ADS-B
12:05AM 40.5021 -73.5517 75° East 315 362 5,000  Level FlightAware ADS-B
12:06AM 40.5076 -73.5240 75° East 315 362 5,000 540 Level FlightAware ADS-B
12:06AM 40.5131 -73.4941 76° East 316 364 5,300 1,740 Climbing FlightAware ADS-B
12:06AM 40.5184 -73.4642 77° East 317 365 5,900 2,700 Climbing FlightAware ADS-B
12:06AM 40.5213 -73.4473 77° East 319 367 6,400 2,760 Climbing FlightAware ADS-B
12:06AM 40.5219 -73.4395 84° East 319 367 6,500 2,220 Climbing FlightAware ADS-B
12:06AM 40.5219 -73.4317 90° East 320 368 6,700 2,400 Climbing FlightAware ADS-B
12:07AM 40.5213 -73.4201 94° East 320 368 6,900 2,280 Climbing FlightAware ADS-B
12:07AM 40.5198 -73.4068 98° East 320 368 7,200 2,580 Climbing FlightAware ADS-B
12:07AM 40.5165 -73.3899 104° East 319 367 7,600 2,520 Climbing FlightAware ADS-B
12:07AM 40.5144 -73.3826 111° Southeast 319 367 7,800 2,700 Climbing FlightAware ADS-B
12:07AM 40.5055 -73.3537 112° Southeast 320 368 8,500 2,700 Climbing FlightAware ADS-B
12:07AM 40.4965 -73.3248 112° Southeast 322 371 9,200 2,400 Climbing FlightAware ADS-B
12:08AM 40.4876 -73.2959 112° Southeast 323 372 9,800 1,860 Climbing FlightAware ADS-B
12:08AM 40.4690 -73.2386 113° Southeast 340 391 10,700 1,320 Climbing FlightAware ADS-B
12:09AM 40.4495 -73.1792 113° Southeast 368 423 11,200 960 Climbing FlightAware ADS-B
12:09AM 40.4243 -73.0995 113° Southeast 399 459 11,800 1,140 Climbing FlightAware ADS-B
12:10AM 40.3991 -73.0206 113° Southeast 423 487 12,600 1,680 Climbing FlightAware ADS-B
12:10AM 40.3947 -72.9900 101° East 427 491 13,100 2,220 Climbing FlightAware ADS-B
12:10AM 40.3993 -72.9226 85° East 434 499 14,000 2,160 Climbing FlightAware ADS-B
12:11AM 40.4207 -72.8653 64° Northeast 439 505 14,900 2,160 Climbing FlightAware ADS-B
12:11AM 40.4523 -72.7928 60° Northeast 445 512 16,000 1,860 Climbing FlightAware ADS-B
12:13AM 40.5261 -72.6264 60° Northeast 451 519 18,100 1,860 Climbing FlightAware ADS-B
12:13AM 40.5615 -72.5460 60° Northeast 463 533 19,200 1,860 Climbing FlightAware ADS-B
12:14AM 40.5938 -72.4724 60° Northeast 467 537 20,100 1,560 Climbing FlightAware ADS-B
12:14AM 40.6334 -72.3806 60° Northeast 473 544 21,000 1,560 Climbing FlightAware ADS-B
12:15AM 40.6666 -72.3054 60° Northeast 475 547 21,900 1,620 Climbing FlightAware ADS-B
12:15AM 40.7039 -72.2192 60° Northeast 478 550 22,800 1,500 Climbing FlightAware ADS-B
12:16AM 40.7393 -72.1350 61° Northeast 484 557 23,600 1,380 Climbing FlightAware ADS-B
12:16AM 40.7744 -72.0552 60° Northeast 487 560 24,300 1,260 Climbing FlightAware ADS-B
12:17AM 40.8333 -71.9169 61° Northeast 487 560 25,400 1,200 Climbing FlightAware ADS-B
12:18AM 40.8707 -71.8298 60° Northeast 497 572 26,100 1,200 Climbing FlightAware ADS-B
12:18AM 40.9053 -71.7475 61° Northeast 501 577 26,700 480 Climbing FlightAware ADS-B
12:19AM 40.9640 -71.6130 60° Northeast 500 575 26,900 1,260 Climbing FlightAware
12:20AM 41.0221 -71.4739 61° Northeast 504 580 28,900 2,040 Climbing FlightAware ADS-B
12:21AM 41.0600 -71.3810 62° Northeast 496 571 29,700 1,320 Climbing FlightAware
12:22AM 41.1230 -71.2310 61° Northeast 486 559 31,000 780 Climbing FlightAware
12:22AM 41.1670 -71.1280 60° Northeast 489 563 31,000  Level FlightAware
12:23AM 41.2110 -71.0220 61° Northeast 487 560 31,000  Level FlightAware
12:24AM 41.2910 -70.8250 62° Northeast 488 562 31,000  Level FlightAware
12:25AM 41.3360 -70.7170 61° Northeast 490 564 31,000  Level FlightAware
12:26AM 41.3790 -70.6120 61° Northeast 492 566 31,000  Level FlightAware
12:26AM 41.4250 -70.4990 61° Northeast 492 566 31,000  Level FlightAware
12:27AM 41.4640 -70.4050 61° Northeast 492 566 31,000  Level FlightAware
12:28AM 41.5070 -70.2960 62° Northeast 492 566 31,000  Level FlightAware
12:29AM 41.5620 -70.1590 62° Northeast 492 566 31,000  Level FlightAware
12:29AM 41.5950 -70.0740 63° Northeast 492 566 31,000  Level FlightAware
12:30AM 41.6920 -69.8340 62° Northeast 497 572 31,000  Level FlightAware
12:31AM 41.7360 -69.7220 62° Northeast 497 572 31,000  Level FlightAware
12:32AM 41.7700 -69.6310 63° Northeast 497 572 31,000  Level FlightAware
12:33AM 41.8370 -69.4630 62° Northeast 497 572 31,000  Level FlightAware
12:33AM 41.8820 -69.3480 62° Northeast 496 571 31,000  Level FlightAware
12:34AM 41.9250 -69.2380 62° Northeast 497 572 31,000  Level FlightAware
12:35AM 41.9740 -69.1090 63° Northeast 496 571 31,000  Level FlightAware
12:36AM 42.0270 -68.9730 62° Northeast 496 571 31,000  Level FlightAware
12:36AM 42.0680 -68.8650 63° Northeast 497 572 31,000  Level FlightAware
12:37AM 42.1180 -68.7290 64° Northeast 499 574 31,000  Level FlightAware
12:38AM 42.1620 -68.6160 62° Northeast 498 573 31,000  Level FlightAware
12:38AM 42.2080 -68.4910 64° Northeast 499 574 31,000  Level FlightAware
12:39AM 42.2540 -68.3690 63° Northeast 500 575 31,000  Level FlightAware
12:40AM 42.2990 -68.2480 63° Northeast 500 575 31,000  Level FlightAware
12:41AM 42.3520 -68.1060 63° Northeast 500 575 31,000  Level FlightAware
12:42AM 42.4040 -67.9650 63° Northeast 501 577 31,000  Level FlightAware
12:42AM 42.4470 -67.8510 63° Northeast 501 577 31,000  Level FlightAware
12:43AM 42.4800 -67.7630 63° Northeast 501 577 31,000  Level FlightAware
12:44AM 42.5230 -67.6490 63° Northeast 501 577 31,000  Level FlightAware
12:44AM 42.5560 -67.5610 63° Northeast 501 577 31,000  Level FlightAware
12:45AM 42.6010 -67.4420 63° Northeast 501 577 31,000  Level FlightAware
12:46AM 42.6440 -67.3270 63° Northeast 501 577 31,000  Level FlightAware
12:47AM 42.6770 -67.2390 63° Northeast 501 577 31,000  Level FlightAware
12:48AM 42.7200 -67.1240 63° Northeast 501 577 31,000  Level FlightAware
12:48AM 42.7540 -67.0330 63° Northeast 501 577 31,000  Level FlightAware
12:49AM 42.7970 -66.9180 63° Northeast 501 577 31,000  Level FlightAware
12:50AM 42.8290 -66.8320 63° Northeast 501 577 31,000  Level FlightAware
12:50AM 42.9380 -66.4780 67° East 503 579 31,000  Level FlightAware
12:51AM 42.9840 -66.3480 64° Northeast 504 580 31,000  Level FlightAware
12:52AM 43.0290 -66.2180 65° Northeast 504 580 31,000  Level FlightAware
12:52AM 43.0690 -66.1020 65° Northeast 505 581 31,000  Level FlightAware
12:53AM 43.1090 -65.9850 65° Northeast 505 581 31,000  Level FlightAware
12:54AM 43.1490 -65.8680 65° Northeast 506 582 31,000  Level FlightAware
12:54AM 43.1940 -65.7340 65° Northeast 507 583 31,000  Level FlightAware
12:55AM 43.2340 -65.6200 64° Northeast 508 585 31,000  Level FlightAware
12:56AM 43.2780 -65.4870 66° East 511 588 31,000  Level FlightAware
12:57AM 43.3180 -65.3690 65° Northeast 510 587 31,000  Level FlightAware
12:57AM 43.3570 -65.2550 65° Northeast 511 588 31,000  Level FlightAware
12:58AM 43.4020 -65.1190 65° Northeast 511 588 31,000  Level FlightAware
12:59AM 43.4410 -64.9980 66° East 511 588 31,000  Level FlightAware
12:59AM 43.4860 -64.8650 65° Northeast 510 587 31,000  Level FlightAware
01:00AM 43.5240 -64.7460 66° East 509 586 31,000  Level FlightAware
01:01AM 43.5630 -64.6280 65° Northeast 509 586 31,000  Level FlightAware
01:01AM 43.5960 -64.5270 66° East 509 586 31,000  Level FlightAware
01:02AM 43.6370 -64.4070 65° Northeast 509 586 31,000  Level FlightAware
01:03AM 43.6670 -64.3170 65° Northeast 509 586 31,000  Level FlightAware
01:04AM 43.7080 -64.1960 65° Northeast 509 586 31,000  Level FlightAware
01:04AM 43.7710 -63.9850 67° East 511 588 31,000  Level FlightAware
01:06AM 43.8430 -63.7550 66° East 511 588 31,000  Level FlightAware
01:06AM 43.8850 -63.6230 66° East 511 588 31,000  Level FlightAware
01:07AM 43.9230 -63.5000 67° East 511 588 31,000  Level FlightAware
01:08AM 43.9600 -63.3830 66° East 512 589 31,000  Level FlightAware
01:09AM 44.0090 -63.2260 66° East 512 589 31,000  Level FlightAware
01:09AM 44.0580 -63.0650 67° East 514 592 31,000  Level FlightAware
01:10AM 44.0990 -62.9320 67° East 514 592 31,000  Level FlightAware
01:11AM 44.1460 -62.7760 67° East 516 594 31,000  Level FlightAware
01:12AM 44.1900 -62.6320 67° East 516 594 31,000  Level FlightAware
01:13AM 44.2290 -62.5020 67° East 516 594 31,000  Level FlightAware
01:13AM 44.2580 -62.4080 67° East 516 594 31,000  Level FlightAware
01:14AM 44.2960 -62.2830 67° East 516 594 31,000  Level FlightAware
01:15AM 44.3250 -62.1890 67° East 516 594 31,000  Level FlightAware
01:16AM 44.3640 -62.0580 67° East 516 594 31,000  Level FlightAware
01:16AM 44.3930 -61.9640 67° East 516 594 31,000  Level FlightAware
01:17AM 44.4310 -61.8380 67° East 516 594 31,000  Level FlightAware
01:18AM 44.4600 -61.7420 67° East 516 594 31,000  Level FlightAware
01:18AM 44.4980 -61.6160 67° East 516 594 31,000  Level FlightAware
01:19AM 44.5270 -61.5220 67° East 516 594 31,000  Level FlightAware
01:20AM 44.5650 -61.3960 67° East 516 594 31,000  Level FlightAware
01:20AM 44.5920 -61.3070 67° East 516 594 31,000  Level FlightAware
01:21AM 44.6300 -61.1810 67° East 516 594 31,000 780 Level FlightAware
01:23AM 44.7870 -60.5750 70° East 515 593 33,000 840 Climbing FlightAware
01:23AM 44.8220 -60.4500 68° East 514 592 33,000  Level FlightAware
01:24AM 44.8540 -60.3320 69° East 514 592 33,000  Level FlightAware
01:25AM 44.8960 -60.1780 69° East 516 594 33,000  Level FlightAware
01:26AM 44.9300 -60.0560 68° East 517 595 33,000  Level FlightAware
01:26AM 44.9640 -59.9300 69° East 517 595 33,000  Level FlightAware
01:27AM 45.0010 -59.7910 69° East 518 596 33,000  Level FlightAware
01:28AM 45.0360 -59.6640 69° East 520 598 33,000  Level FlightAware
01:28AM 45.0740 -59.5210 69° East 522 601 33,000  Level FlightAware
01:29AM 45.1080 -59.3930 69° East 523 602 33,000  Level FlightAware
01:30AM 45.1570 -59.2060 70° East 526 605 33,000  Level FlightAware
01:31AM 45.1910 -59.0770 69° East 527 606 33,000  Level FlightAware
01:31AM 45.2280 -58.9340 70° East 527 606 33,000  Level FlightAware
01:32AM 45.2640 -58.7950 70° East 528 608 33,000  Level FlightAware
01:33AM 45.3000 -58.6540 70° East 529 609 33,000  Level FlightAware
01:33AM 45.3330 -58.5270 70° East 530 610 33,000  Level FlightAware
01:34AM 45.3680 -58.3900 70° East 530 610 33,000  Level FlightAware
01:35AM 45.4030 -58.2520 70° East 532 612 33,000  Level FlightAware
01:36AM 45.4400 -58.1050 70° East 545 627 33,000  Level FlightAware
01:36AM 45.4740 -57.9690 70° East 549 632 33,000  Level FlightAware
01:37AM 45.5030 -57.8530 70° East 549 632 33,000  Level FlightAware
01:38AM 45.5390 -57.7110 70° East 549 632 33,000  Level FlightAware
01:38AM 45.5670 -57.6040 69° East 549 632 33,000  Level FlightAware
01:39AM 45.6020 -57.4650 70° East 549 632 33,000  Level FlightAware
01:40AM 45.6290 -57.3600 70° East 549 632 33,000  Level FlightAware
01:40AM 45.6570 -57.2500 70° East 549 632 33,000  Level FlightAware
01:41AM 45.6920 -57.1110 70° East 549 632 33,000  Level FlightAware
01:42AM 45.7670 -56.7610 73° East 551 634 33,000  Level FlightAware
01:43AM 45.7960 -56.6370 71° East 546 628 33,000  Level FlightAware
01:44AM 45.8340 -56.4730 72° East 543 625 33,000  Level FlightAware
01:44AM 45.8690 -56.3230 71° East 543 625 33,000  Level FlightAware
01:45AM 45.9020 -56.1790 72° East 543 625 33,000  Level FlightAware
01:46AM 45.9300 -56.0590 71° East 544 626 33,000  Level FlightAware
01:46AM 45.9660 -55.8890 73° East 548 631 33,000  Level FlightAware
01:47AM 45.9940 -55.7460 74° East 550 633 33,000  Level FlightAware
01:48AM 46.0220 -55.6090 74° East 551 634 33,000  Level FlightAware
01:48AM 46.0540 -55.4500 74° East 553 636 33,000  Level FlightAware
01:49AM 46.0820 -55.3080 74° East 554 638 33,000  Level FlightAware
01:50AM 46.1070 -55.1850 74° East 555 639 33,000  Level FlightAware
01:51AM 46.1530 -54.9500 74° East 555 639 33,000  Level FlightAware
01:51AM 46.1800 -54.8140 74° East 555 639 33,000  Level FlightAware
01:52AM 46.2100 -54.6610 74° East 556 640 33,000  Level FlightAware
01:53AM 46.2400 -54.5040 75° East 556 640 33,000  Level FlightAware
01:54AM 46.2700 -54.3460 75° East 557 641 33,000  Level FlightAware
01:54AM 46.2950 -54.2140 75° East 556 640 33,000  Level FlightAware
01:55AM 46.3240 -54.0560 75° East 555 639 33,000  Level FlightAware
01:56AM 46.3530 -53.9020 75° East 555 639 33,000  Level FlightAware
01:56AM 46.3800 -53.7550 75° East 556 640 33,000  Level FlightAware
01:57AM 46.4090 -53.5960 75° East 557 641 33,000  Level FlightAware
01:58AM 46.4350 -53.4520 75° East 557 641 33,000  Level FlightAware
01:58AM 46.4600 -53.3110 76° East 558 642 33,000  Level FlightAware
01:59AM 46.4890 -53.1520 75° East 559 643 33,000  Level FlightAware
02:00AM 46.5180 -52.9890 75° East 560 644 33,000  Level FlightAware
02:01AM 46.5530 -52.7880 76° East 560 644 33,000  Level FlightAware
02:01AM 46.5780 -52.6420 76° East 561 646 33,000  Level FlightAware
02:02AM 46.6050 -52.4890 76° East 563 648 33,000  Level FlightAware
02:03AM 46.6330 -52.3230 76° East 564 649 33,000  Level FlightAware
02:04AM 46.6590 -52.1650 76° East 565 650 33,000  Level FlightAware
02:04AM 46.6840 -52.0140 76° East 565 650 33,000  Level FlightAware
02:05AM 46.7110 -51.8550 76° East 566 651 33,000  Level FlightAware
02:06AM 46.7350 -51.7060 77° East 568 654 33,000  Level FlightAware
02:06AM 46.7560 -51.5830 76° East 570 656 33,000  Level FlightAware
02:07AM 46.7870 -51.3880 77° East 572 658 33,000  Level FlightAware
02:08AM 46.8110 -51.2380 77° East 573 659 33,000  Level FlightAware
02:08AM 46.8350 -51.0870 77° East 574 661 33,000  Level FlightAware
02:09AM 46.8550 -50.9610 77° East 574 661 33,000  Level FlightAware
02:10AM 46.8730 -50.8450 77° East 574 661 33,000  Level FlightAware
02:11AM 46.8990 -50.6850 77° East 574 661 33,000  Level FlightAware
02:11AM 46.9170 -50.5650 78° East 574 661 33,000  Level FlightAware
02:12AM 46.9420 -50.4080 77° East 574 661 33,000  Level FlightAware
02:13AM 46.9600 -50.2920 77° East 574 661 33,000  Level FlightAware
02:13AM 46.9850 -50.1370 77° East 574 661 33,000  Level FlightAware
02:14AM 47.0030 -50.0210 77° East 574 661 33,000  Level FlightAware
02:15AM 47.0340 -49.8240 77° East 574 661 33,000  Level FlightAware
02:16AM 47.0520 -49.7080 77° East 574 661 33,000  Level FlightAware
02:17AM 47.0000 -50.0000 70° East 570 656 33,000  Level ETMS Enhanced Traffic Management System
02:17AM 47.0840 -49.5080 77° East 574 661 33,000  Level FlightAware
02:17AM 47.2000 -49.1167 70° East 570 656 33,000  Level Gander Center
02:17AM 47.1020 -49.3880 78° East 574 661 33,000  Level FlightAware
02:18AM 47.2333 -48.8833 78° East 570 656 33,000  Level Gander Center
02:18AM 47.1270 -49.2330 77° East 574 661 33,000  Level FlightAware
02:19AM 47.3000 -48.6667 66° East 580 667 33,000  Level Gander Center
02:20AM 47.3333 -48.4500 77° East 570 656 33,000  Level Gander Center
02:21AM 47.4000 -48.2333 65° Northeast 560 644 33,000  Level Gander Center
02:22AM 47.4333 -48.0333 76° East 550 633 33,000  Level Gander Center
02:23AM 47.5000 -47.8167 65° Northeast 560 644 33,000  Level Gander Center
02:24AM 47.5333 -47.6000 77° East 540 621 33,000  Level Gander Center
02:25AM 47.5833 -47.3667 72° East 570 656 33,000  Level Gander Center
02:26AM 47.6333 -47.1500 71° East 570 656 33,000  Level Gander Center
02:27AM 47.6667 -46.9500 76° East 570 656 33,000  Level Gander Center
02:28AM 47.7333 -46.7000 68° East 560 644 33,000  Level Gander Center
02:29AM 47.7667 -46.4833 77° East 570 656 33,000  Level Gander Center
02:31AM 47.8362 -46.1987 70° East  Level FlightAware Approximate
02:38AM 48.1572 -44.7925 73° East  Level FlightAware Approximate
02:39AM 48.1969 -44.5882 74° East  Level FlightAware Approximate
02:40AM 48.2362 -44.3835 74° East  Level FlightAware Approximate
02:41AM 48.2751 -44.1785 74° East  Level FlightAware Approximate
02:42AM 48.3137 -43.9733 74° East  Level FlightAware Approximate
02:43AM 48.3519 -43.7677 74° East  Level FlightAware Approximate
02:44AM 48.3897 -43.5618 74° East  Level FlightAware Approximate
02:45AM 48.4272 -43.3556 75° East  Level FlightAware Approximate
02:46AM 48.4643 -43.1491 75° East  Level FlightAware Approximate
02:47AM 48.5010 -42.9423 75° East  Level FlightAware Approximate
02:48AM 48.5374 -42.7352 75° East  Level FlightAware Approximate
02:49AM 48.5737 -42.5279 75° East  Level FlightAware Approximate
02:50AM 48.6110 -42.3209 75° East  Level FlightAware Approximate
02:51AM 48.6479 -42.1135 75° East  Level FlightAware Approximate
02:52AM 48.6844 -41.9059 75° East  Level FlightAware Approximate
02:53AM 48.7206 -41.6979 75° East  Level FlightAware Approximate
02:54AM 48.7564 -41.4897 75° East  Level FlightAware Approximate
02:55AM 48.7918 -41.2812 75° East  Level FlightAware Approximate
02:56AM 48.8268 -41.0723 76° East  Level FlightAware Approximate
02:57AM 48.8614 -40.8632 76° East  Level FlightAware Approximate
02:58AM 48.8957 -40.6538 76° East  Level FlightAware Approximate
02:59AM 48.9296 -40.4441 76° East  Level FlightAware Approximate
03:00AM 48.9631 -40.2342 76° East  Level FlightAware Approximate
03:01AM 48.9963 -40.0239 76° East  Level FlightAware Approximate
03:02AM 49.0266 -39.8126 78° East  Level FlightAware Approximate
03:03AM 49.0563 -39.6008 78° East  Level FlightAware Approximate
03:04AM 49.0856 -39.3889 78° East  Level FlightAware Approximate
03:05AM 49.1145 -39.1767 78° East  Level FlightAware Approximate
03:06AM 49.1430 -38.9642 78° East  Level FlightAware Approximate
03:06AM 49.0000 -40.0000 77° East 549 632 33,000  Level ETMS Enhanced Traffic Management System
03:07AM 49.1711 -38.7515 78° East  Level FlightAware Approximate
03:08AM 49.1988 -38.5386 79° East  Level FlightAware Approximate
03:09AM 49.2261 -38.3254 79° East  Level FlightAware Approximate
03:10AM 49.2531 -38.1120 79° East  Level FlightAware Approximate
03:11AM 49.2796 -37.8983 79° East  Level FlightAware Approximate
03:12AM 49.4199 -36.7912 80° East 549 632 33,000  Level FlightAware Transoceanic
03:13AM 49.4464 -36.5600 80° East 549 632 33,000  Level FlightAware Transoceanic
03:14AM 49.4725 -36.3285 80° East 549 632 33,000  Level FlightAware Transoceanic
03:15AM 49.4982 -36.0968 80° East 549 632 33,000  Level FlightAware Transoceanic
03:16AM 49.5234 -35.8649 81° East 549 632 33,000  Level FlightAware Transoceanic
03:17AM 49.5481 -35.6327 81° East 549 632 33,000  Level FlightAware Transoceanic
03:18AM 49.5723 -35.4003 81° East 549 632 33,000  Level FlightAware Transoceanic
03:19AM 49.5961 -35.1676 81° East 549 632 33,000  Level FlightAware Transoceanic
03:20AM 49.6194 -34.9348 81° East 549 632 33,000  Level FlightAware Transoceanic
03:21AM 49.6423 -34.7017 81° East 549 632 33,000  Level FlightAware Transoceanic
03:22AM 49.6647 -34.4684 82° East 549 632 33,000  Level FlightAware Transoceanic
03:23AM 49.6866 -34.2348 82° East 549 632 33,000  Level FlightAware Transoceanic
03:24AM 49.7080 -34.0011 82° East 549 632 33,000  Level FlightAware Transoceanic
03:25AM 49.7290 -33.7672 82° East 549 632 33,000  Level FlightAware Transoceanic
03:26AM 49.7495 -33.5330 82° East 549 632 33,000  Level FlightAware Transoceanic
03:27AM 49.7695 -33.2987 83° East 549 632 33,000  Level FlightAware Transoceanic
03:28AM 49.7891 -33.0642 83° East 549 632 33,000  Level FlightAware Transoceanic
03:29AM 49.8082 -32.8295 83° East 549 632 33,000  Level FlightAware Transoceanic
03:30AM 49.8268 -32.5946 83° East 549 632 33,000  Level FlightAware Transoceanic
03:31AM 49.8449 -32.3595 83° East 549 632 33,000  Level FlightAware Transoceanic
03:32AM 49.8626 -32.1243 83° East 549 632 33,000  Level FlightAware Transoceanic
03:33AM 49.8798 -31.8889 84° East 549 632 33,000  Level FlightAware Transoceanic
03:34AM 49.8965 -31.6533 84° East 549 632 33,000  Level FlightAware Transoceanic
03:35AM 49.9127 -31.4176 84° East 549 632 33,000  Level FlightAware Transoceanic
03:36AM 49.9284 -31.1817 84° East 549 632 33,000  Level FlightAware Transoceanic
03:37AM 49.9437 -30.9456 84° East 549 632 33,000  Level FlightAware Transoceanic
03:38AM 49.9585 -30.7094 85° East 549 632 33,000  Level FlightAware Transoceanic
03:39AM 49.9728 -30.4731 85° East 549 632 33,000  Level FlightAware Transoceanic
03:40AM 49.9866 -30.2366 85° East 549 632 33,000  Level FlightAware Transoceanic
03:41AM 49.9991 -30.0171 85° East  Level FlightAware Approximate
03:42AM 50.0111 -29.7974 85° East  Level FlightAware Approximate
03:43AM 50.0263 -29.8184 77° East  Level FlightAware Approximate
03:44AM 50.0571 -29.6031 77° East  Level FlightAware Approximate
03:45AM 50.0875 -29.3874 78° East  Level FlightAware Approximate
03:46AM 50.1175 -29.1716 78° East  Level FlightAware Approximate
03:46AM 50.0000 -30.0000 77° East 526 605 33,000  Level ETMS Enhanced Traffic Management System
03:47AM 50.1470 -28.9558 78° East  Level FlightAware Approximate
03:48AM 50.1762 -28.7398 78° East  Level FlightAware Approximate
03:49AM 50.2049 -28.5235 78° East  Level FlightAware Approximate
03:50AM 50.2332 -28.3069 78° East  Level FlightAware Approximate
03:51AM 50.2612 -28.0901 79° East  Level FlightAware Approximate
03:52AM 50.3298 -27.5423 79° East 526 605 33,000  Level FlightAware Transoceanic
03:53AM 50.3572 -27.3173 79° East 526 605 33,000  Level FlightAware Transoceanic
03:54AM 50.3842 -27.0919 79° East 526 605 33,000  Level FlightAware Transoceanic
03:55AM 50.4107 -26.8664 80° East 526 605 33,000  Level FlightAware Transoceanic
03:56AM 50.4368 -26.6406 80° East 526 605 33,000  Level FlightAware Transoceanic
03:57AM 50.4625 -26.4145 80° East 526 605 33,000  Level FlightAware Transoceanic
03:58AM 50.4877 -26.1882 80° East 526 605 33,000  Level FlightAware Transoceanic
03:59AM 50.5125 -25.9616 80° East 526 605 33,000  Level FlightAware Transoceanic
04:00AM 50.5368 -25.7348 81° East 526 605 33,000  Level FlightAware Transoceanic
04:01AM 50.5607 -25.5078 81° East 526 605 33,000  Level FlightAware Transoceanic
04:02AM 50.5841 -25.2805 81° East 526 605 33,000  Level FlightAware Transoceanic
04:03AM 50.6072 -25.0531 81° East 526 605 33,000  Level FlightAware Transoceanic
04:04AM 50.6297 -24.8254 81° East 526 605 33,000  Level FlightAware Transoceanic
04:05AM 50.6519 -24.5975 81° East 526 605 33,000  Level FlightAware Transoceanic
04:06AM 50.6735 -24.3693 82° East 526 605 33,000  Level FlightAware Transoceanic
04:07AM 50.6948 -24.1410 82° East 526 605 33,000  Level FlightAware Transoceanic
04:08AM 50.7156 -23.9125 82° East 526 605 33,000  Level FlightAware Transoceanic
04:09AM 50.7359 -23.6837 82° East 526 605 33,000  Level FlightAware Transoceanic
04:10AM 50.7558 -23.4548 82° East 526 605 33,000  Level FlightAware Transoceanic
04:11AM 50.7752 -23.2257 82° East 526 605 33,000  Level FlightAware Transoceanic
04:12AM 50.7942 -22.9963 83° East 526 605 33,000  Level FlightAware Transoceanic
04:13AM 50.8128 -22.7668 83° East 526 605 33,000  Level FlightAware Transoceanic
04:14AM 50.8309 -22.5372 83° East 526 605 33,000  Level FlightAware Transoceanic
04:15AM 50.8485 -22.3073 83° East 526 605 33,000  Level FlightAware Transoceanic
04:16AM 50.8657 -22.0773 83° East 526 605 33,000  Level FlightAware Transoceanic
04:17AM 50.8824 -21.8471 84° East 526 605 33,000  Level FlightAware Transoceanic
04:18AM 50.8987 -21.6167 84° East 526 605 33,000  Level FlightAware Transoceanic
04:19AM 50.9146 -21.3862 84° East 526 605 33,000  Level FlightAware Transoceanic
04:20AM 50.9299 -21.1555 84° East 526 605 33,000  Level FlightAware Transoceanic
04:21AM 50.9449 -20.9247 84° East 526 605 33,000  Level FlightAware Transoceanic
04:22AM 50.9593 -20.6937 84° East 526 605 33,000  Level FlightAware Transoceanic
04:23AM 50.9733 -20.4626 85° East 526 605 33,000  Level FlightAware Transoceanic
04:24AM 50.9869 -20.2314 85° East 526 605 33,000  Level FlightAware Transoceanic
04:25AM 50.9996 -20.0076 85° East  Level FlightAware Approximate
04:26AM 51.0118 -19.7836 85° East  Level FlightAware Approximate
04:27AM 50.9771 -19.7937 100° East  Level FlightAware Approximate
04:28AM 50.9520 -19.5727 100° East  Level FlightAware Approximate
04:29AM 50.9266 -19.3519 100° East  Level FlightAware Approximate
04:30AM 50.9008 -19.1313 100° East  Level FlightAware Approximate
04:31AM 50.8745 -18.9111 101° East  Level FlightAware Approximate
04:32AM 50.8479 -18.6910 101° East  Level FlightAware Approximate
04:33AM 50.8208 -18.4712 101° East  Level FlightAware Approximate
04:34AM 50.7933 -18.2517 101° East  Level FlightAware Approximate
04:35AM 50.7654 -18.0324 101° East  Level FlightAware Approximate
04:36AM 50.7371 -17.8134 101° East  Level FlightAware Approximate
04:37AM 50.7083 -17.5946 102° East  Level FlightAware Approximate
04:38AM 50.6792 -17.3761 102° East  Level FlightAware Approximate
04:39AM 50.6497 -17.1579 102° East  Level FlightAware Approximate
04:40AM 50.6197 -16.9400 102° East  Level FlightAware Approximate
04:41AM 50.5893 -16.7223 102° East  Level FlightAware Approximate
04:42AM 50.5586 -16.5050 102° East  Level FlightAware Approximate
04:43AM 50.5274 -16.2879 103° East  Level FlightAware Approximate
04:44AM 50.4958 -16.0711 103° East  Level FlightAware Approximate
04:45AM 50.4639 -15.8546 103° East  Level FlightAware Approximate
04:46AM 50.4315 -15.6383 103° East  Level FlightAware Approximate
04:47AM 50.3987 -15.4224 103° East  Level FlightAware Approximate
04:48AM 50.3656 -15.2068 103° East  Level FlightAware Approximate
04:49AM 50.3320 -14.9915 104° East  Level FlightAware Approximate
04:50AM 50.2981 -14.7764 104° East  Level FlightAware Approximate
04:51AM 50.2639 -14.5617 104° East  Level FlightAware Approximate
04:52AM 50.2293 -14.3473 104° East  Level FlightAware Approximate
04:53AM 50.1942 -14.1331 104° East  Level FlightAware Approximate
04:54AM 50.1588 -13.9193 104° East  Level FlightAware Approximate
04:55AM 50.1231 -13.7058 105° East  Level FlightAware Approximate
04:56AM 50.0870 -13.4926 105° East  Level FlightAware Approximate
04:57AM 50.0505 -13.2797 105° East  Level FlightAware Approximate
04:58AM 50.0137 -13.0671 105° East  Level FlightAware Approximate
04:59AM 49.9765 -12.8548 105° East  Level FlightAware Approximate
05:00AM 49.9388 -12.6429 105° East  Level FlightAware Approximate
05:01AM 49.9008 -12.4313 106° East  Level FlightAware Approximate
05:02AM 49.8624 -12.2201 106° East  Level FlightAware Approximate
05:03AM 49.8236 -12.0092 106° East  Level FlightAware Approximate
05:04AM 49.7845 -11.7986 106° East  Level FlightAware Approximate
05:04AM 50.2770 -11.3020 106° East 516 594 35,000  Level FlightAware
05:05AM 49.7449 -11.5884 106° East  Level FlightAware Approximate
05:05AM 50.2480 -11.1760 110° East 515 593 35,000  Level FlightAware
05:06AM 50.1960 -10.9530 110° East 515 593 35,000  Level FlightAware
05:07AM 50.1660 -10.8270 110° East 514 592 35,000  Level FlightAware
05:08AM 50.1040 -10.5680 110° East 514 592 35,000  Level FlightAware
05:08AM 50.0710 -10.4330 111° Southeast 513 590 35,000  Level FlightAware
05:09AM 50.0250 -10.2400 110° East 514 592 35,000  Level FlightAware
05:10AM 49.9860 -10.0840 111° Southeast 514 592 35,000  Level FlightAware
05:11AM 49.9540 -9.9500 110° East 514 592 35,000  Level FlightAware
05:11AM 49.9290 -9.8500 111° Southeast 514 592 35,000  Level FlightAware
05:12AM 49.8950 -9.7120 111° Southeast 515 593 35,000  Level FlightAware
05:13AM 49.8570 -9.5640 112° Southeast 515 593 35,000  Level FlightAware
05:13AM 49.8200 -9.4130 111° Southeast 515 593 35,000  Level FlightAware
05:14AM 49.7820 -9.2660 112° Southeast 515 593 35,000  Level FlightAware
05:15AM 49.7470 -9.1250 111° Southeast 515 593 35,000  Level FlightAware
05:15AM 49.7095 -8.9803 111° Southeast 486 559 35,000  Level FlightAware UK
05:15AM 49.7110 -8.9850 111° Southeast 515 593 35,000  Level FlightAware
05:16AM 49.6935 -8.9188 111° Southeast 486 559 35,000  Level FlightAware UK
05:16AM 49.6777 -8.8575 112° Southeast 484 557 35,000  Level FlightAware UK
05:16AM 49.6740 -8.8420 112° Southeast 514 592 35,000  Level FlightAware
05:16AM 49.6565 -8.7758 112° Southeast 484 557 35,000  Level FlightAware UK
05:17AM 49.6407 -8.7145 112° Southeast 484 557 35,000  Level FlightAware UK
05:17AM 49.6350 -8.6920 112° Southeast 514 592 35,000  Level FlightAware
05:17AM 49.6194 -8.6329 112° Southeast 484 557 35,000  Level FlightAware UK
05:17AM 49.6034 -8.5717 112° Southeast 484 557 35,000  Level FlightAware UK
05:17AM 49.5990 -8.5560 112° Southeast 515 593 35,000  Level FlightAware
05:18AM 49.5819 -8.4902 112° Southeast 484 557 35,000  Level FlightAware UK
05:18AM 49.5658 -8.4290 112° Southeast 484 557 35,000  Level FlightAware UK
05:18AM 49.5600 -8.4060 112° Southeast 515 593 35,000  Level FlightAware
05:18AM 49.5443 -8.3475 112° Southeast 484 557 35,000  Level FlightAware UK
05:19AM 49.5282 -8.2864 112° Southeast 486 559 35,000  Level FlightAware UK
05:19AM 49.5220 -8.2640 112° Southeast 516 594 35,000  Level FlightAware
05:19AM 49.5067 -8.2049 112° Southeast 486 559 35,000  Level FlightAware UK
05:19AM 49.4904 -8.1439 112° Southeast 484 557 35,000  Level FlightAware UK
05:20AM 49.4880 -8.1350 112° Southeast 516 594 35,000  Level FlightAware
05:20AM 49.4686 -8.0626 112° Southeast 486 559 35,000  Level FlightAware UK
05:20AM 49.4520 -8.0009 112° Southeast 484 557 35,000  Level FlightAware UK
05:20AM 49.4355 -7.9400 113° Southeast 486 559 35,000  Level FlightAware UK
05:20AM 49.4340 -7.9320 113° Southeast 517 595 35,000  Level FlightAware
05:21AM 49.4191 -7.8790 113° Southeast 486 559 35,000  Level FlightAware UK
05:21AM 49.4026 -7.8179 113° Southeast 484 557 35,000  Level FlightAware UK
05:21AM 49.3950 -7.7890 113° Southeast 518 596 35,000  Level FlightAware
05:22AM 49.3742 -7.7168 113° Southeast 486 559 35,000  Level FlightAware UK
05:22AM 49.3546 -7.6571 117° Southeast 486 559 35,000  Level FlightAware UK
05:22AM 49.3540 -7.6590 117° Southeast 520 598 35,000  Level FlightAware
05:22AM 49.3347 -7.5979 117° Southeast 488 562 35,000  Level FlightAware UK
05:22AM 49.3151 -7.5386 117° Southeast 488 562 35,000  Level FlightAware UK
05:23AM 49.3040 -7.5040 117° Southeast 521 600 35,000  Level FlightAware
05:23AM 49.2826 -7.4397 117° Southeast 486 559 35,000  Level FlightAware UK
05:23AM 49.2632 -7.3805 117° Southeast 486 559 35,000  Level FlightAware UK
05:23AM 49.2610 -7.3730 117° Southeast 521 600 35,000  Level FlightAware
05:24AM 49.2373 -7.3015 117° Southeast 486 559 35,000  Level FlightAware UK
05:24AM 49.2180 -7.2423 117° Southeast 486 559 35,000  Level FlightAware UK
05:24AM 49.2130 -7.2280 117° Southeast 521 600 35,000  Level FlightAware
05:24AM 49.1920 -7.1635 117° Southeast 488 562 35,000  Level FlightAware UK
05:25AM 49.1725 -7.1044 117° Southeast 486 559 35,000  Level FlightAware UK
05:25AM 49.1740 -7.1100 117° Southeast 521 600 35,000  Level FlightAware
05:25AM 49.1465 -7.0255 117° Southeast 488 562 35,000  Level FlightAware UK
05:25AM 49.1260 -6.9650 117° Southeast 520 598 35,000  Level FlightAware
05:26AM 49.1073 -6.9068 117° Southeast 502 578 35,000  Level FlightAware UK
05:26AM 49.0879 -6.8480 117° Southeast 496 571 35,000  Level FlightAware UK
05:26AM 49.0800 -6.8230 117° Southeast 505 581 35,000  Level FlightAware
05:26AM 49.0563 -6.7516 117° Southeast 486 559 35,000  Level FlightAware UK
05:27AM 49.0379 -6.6972 117° Southeast 486 559 35,000  Level FlightAware UK
05:27AM 49.0370 -6.6970 117° Southeast 502 578 35,000  Level FlightAware
05:27AM 49.0189 -6.6405 117° Southeast 484 557 35,000  Level FlightAware UK
05:27AM 49.0001 -6.5839 117° Southeast 482 555 35,000  Level FlightAware UK
05:28AM 48.9910 -6.5580 117° Southeast 502 578 35,000  Level FlightAware
05:28AM 48.9748 -6.5084 117° Southeast 484 557 35,000  Level FlightAware UK
05:28AM 48.9558 -6.4519 117° Southeast 486 559 35,000  Level FlightAware UK
05:28AM 48.9470 -6.4260 117° Southeast 502 578 35,000  Level FlightAware
05:28AM 48.9304 -6.3764 117° Southeast 490 564 35,000  Level FlightAware UK
05:29AM 48.9113 -6.3199 117° Southeast 488 562 35,000  Level FlightAware UK
05:29AM 48.9030 -6.2980 117° Southeast 500 575 35,000  Level FlightAware
05:29AM 48.8858 -6.2451 117° Southeast 486 559 35,000  Level FlightAware UK
05:29AM 48.8667 -6.1892 117° Southeast 484 557 35,000  Level FlightAware UK
05:30AM 48.8600 -6.1700 117° Southeast 498 573 35,000  Level FlightAware
05:30AM 48.8411 -6.1148 117° Southeast 484 557 35,000  Level FlightAware UK
05:30AM 48.8220 -6.0590 117° Southeast 482 555 35,000  Level FlightAware UK
05:30AM 48.8110 -6.0280 117° Southeast 497 572 35,000  Level FlightAware
05:31AM 48.7775 -5.9291 117° Southeast 482 555 35,000  Level FlightAware UK
05:31AM 48.7680 -5.9040 117° Southeast 498 573 35,000  Level FlightAware
05:31AM 48.7456 -5.8365 117° Southeast 482 555 35,000  Level FlightAware UK
05:32AM 48.7280 -5.7870 118° Southeast 500 575 35,000  Level FlightAware
05:32AM 48.7261 -5.7802 118° Southeast 484 557 35,000  Level FlightAware UK
05:32AM 48.7069 -5.7247 118° Southeast 484 557 35,000  Level FlightAware UK
05:32AM 48.6810 -5.6510 118° Southeast 500 575 35,000  Level FlightAware
05:33AM 48.6616 -5.5949 118° Southeast 486 559 35,000  Level FlightAware UK
05:33AM 48.6422 -5.5393 118° Southeast 484 557 35,000  Level FlightAware UK
05:33AM 48.6390 -5.5300 118° Southeast 501 577 35,000  Level FlightAware
05:33AM 48.6227 -5.4835 118° Southeast 484 557 35,000  Level FlightAware UK
05:34AM 48.6033 -5.4278 118° Southeast 484 557 35,000  Level FlightAware UK
05:34AM 48.5890 -5.3870 118° Southeast 503 579 35,000  Level FlightAware
05:34AM 48.5709 -5.3351 118° Southeast 486 559 35,000  Level FlightAware UK
05:35AM 48.5410 -5.2540 118° Southeast 504 580 35,000  Level FlightAware
05:35AM 48.5251 -5.2054 118° Southeast 484 557 35,000  Level FlightAware UK
05:35AM 48.5053 -5.1497 118° Southeast 484 557 35,000  Level FlightAware UK
05:35AM 48.4950 -5.1240 118° Southeast 504 580 35,000  Level FlightAware
05:35AM 48.4788 -5.0754 118° Southeast 484 557 35,000  Level FlightAware UK
05:36AM 48.4590 -5.0196 118° Southeast 484 557 35,000  Level FlightAware UK
05:36AM 48.4470 -4.9880 118° Southeast 506 582 35,000  Level FlightAware
05:36AM 48.4257 -4.9267 118° Southeast 486 559 35,000  Level FlightAware UK
05:37AM 48.4020 -4.8640 118° Southeast 505 581 35,000  Level FlightAware
05:37AM 48.3789 -4.7965 118° Southeast 486 559 35,000  Level FlightAware UK
05:37AM 48.3587 -4.7409 119° Southeast 488 562 35,000  Level FlightAware UK
05:37AM 48.3520 -4.7250 119° Southeast 506 582 35,000  Level FlightAware
05:38AM 48.3317 -4.6661 119° Southeast 488 562 35,000  Level FlightAware UK
05:38AM 48.3116 -4.6105 119° Southeast 488 562 35,000  Level FlightAware UK
05:38AM 48.3080 -4.6020 119° Southeast 505 581 35,000  Level FlightAware
05:38AM 48.2849 -4.5364 119° Southeast 486 559 35,000  Level FlightAware UK
05:39AM 48.2640 -4.4820 119° Southeast 504 580 35,000  Level FlightAware
05:39AM 48.2444 -4.4259 119° Southeast 484 557 35,000  Level FlightAware UK
05:39AM 48.2140 -4.3470 119° Southeast 504 580 35,000  Level FlightAware
05:40AM 48.1720 -4.2300 118° Southeast 505 581 35,000  Level FlightAware
05:41AM 48.1190 -4.0860 119° Southeast 507 583 35,000  Level FlightAware
05:42AM 48.0710 -3.9570 119° Southeast 508 585 35,000  Level FlightAware
05:42AM 48.0240 -3.8310 119° Southeast 508 585 35,000  Level FlightAware
05:43AM 47.9730 -3.6930 119° Southeast 508 585 35,000  Level FlightAware
05:44AM 47.9270 -3.5720 120° Southeast 506 582 35,000  Level FlightAware
05:44AM 47.8800 -3.4550 121° Southeast 508 585 35,000  Level FlightAware
05:45AM 47.8250 -3.3380 125° Southeast 507 583 35,000  Level FlightAware
05:46AM 47.7610 -3.2030 125° Southeast 507 583 35,000  Level FlightAware
05:46AM 47.7090 -3.0890 124° Southeast 506 582 35,000  Level FlightAware
05:47AM 47.6520 -2.9660 124° Southeast 505 581 35,000  Level FlightAware
05:48AM 47.5980 -2.8490 124° Southeast 505 581 35,000  Level FlightAware
05:48AM 47.5460 -2.7370 124° Southeast 505 581 35,000  Level FlightAware
05:49AM 47.4860 -2.6070 124° Southeast 503 579 35,000  Level FlightAware
05:50AM 47.4320 -2.4880 124° Southeast 500 575 35,000  Level FlightAware
05:51AM 47.3810 -2.3790 125° Southeast 499 574 35,000  Level FlightAware
05:51AM 47.3240 -2.2580 125° Southeast 499 574 35,000  Level FlightAware
05:52AM 47.2670 -2.1350 124° Southeast 498 573 35,000  Level FlightAware
05:53AM 47.2140 -2.0210 124° Southeast 498 573 35,000  Level FlightAware
05:53AM 47.1560 -1.8990 125° Southeast 497 572 35,000  Level FlightAware
05:54AM 47.1060 -1.7970 126° Southeast 495 570 35,000  Level FlightAware
05:55AM 47.0460 -1.6670 124° Southeast 494 568 35,000  Level FlightAware
05:55AM 46.9940 -1.5570 125° Southeast 493 567 35,000  Level FlightAware
05:56AM 46.9420 -1.4480 125° Southeast 495 570 35,000  Level FlightAware
05:57AM 46.8820 -1.3290 126° Southeast 495 570 35,000  Level FlightAware
05:58AM 46.8260 -1.2180 126° Southeast 497 572 35,000  Level FlightAware
05:58AM 46.7700 -1.1080 127° Southeast 498 573 35,000  Level FlightAware
05:59AM 46.7180 -0.9850 122° Southeast 497 572 35,000  Level FlightAware
06:00AM 46.6820 -0.8650 114° Southeast 497 572 35,000  Level FlightAware
06:00AM 46.6490 -0.7520 113° Southeast 498 573 35,000  Level FlightAware
06:01AM 46.6320 -0.6860 111° Southeast 497 572 35,000  Level FlightAware
06:03AM 46.6070 -0.5900 111° Southeast 497 572 35,000  Level FlightAware
06:04AM 46.6290 -0.6780 290° West 495 570 35,000  Level FlightAware
06:05AM 46.4200 0.0460 112° Southeast 492 566 35,000  Level FlightAware
06:05AM 46.3890 0.1550 112° Southeast 492 566 35,000  Level FlightAware
06:06AM 46.3520 0.2750 114° Southeast 489 563 35,000  Level FlightAware
06:07AM 46.3130 0.4070 113° Southeast 488 562 35,000  Level FlightAware
06:08AM 46.2630 0.5790 113° Southeast 487 560 35,000  Level FlightAware
06:08AM 46.2360 0.6710 113° Southeast 487 560 35,000  Level FlightAware
06:11AM 46.1461 1.1092 106° East  Level Estimated
06:11AM 46.0790 1.1890 106° East 35,000  Level FlightAware
06:14AM 45.9779 1.6708 107° East  Level Estimated
06:14AM 45.9350 1.6550 107° East 487 560 35,000  Level FlightAware
06:14AM 45.8970 1.7790 114° Southeast 485 558 35,000  Level FlightAware
06:15AM 45.8550 1.9110 115° Southeast 484 557 35,000  Level FlightAware
06:16AM 45.8040 2.0740 114° Southeast 484 557 35,000  Level FlightAware
06:17AM 45.7690 2.1860 114° Southeast 486 559 35,000  Level FlightAware
06:17AM 45.7300 2.3050 115° Southeast 485 558 35,000  Level FlightAware
06:18AM 45.6890 2.4370 114° Southeast 485 558 35,000 120 Level FlightAware
06:19AM 45.6510 2.5530 115° Southeast 486 559 35,200 480 Climbing FlightAware
06:19AM 45.6050 2.6790 118° Southeast 493 567 35,700 900 Climbing FlightAware
06:20AM 45.5450 2.8400 118° Southeast 493 567 36,700 780 Climbing FlightAware
06:21AM 45.5060 2.9470 117° Southeast 494 568 37,000 180 Climbing FlightAware
06:22AM 45.4560 3.0820 118° Southeast 494 568 37,000  Level FlightAware
06:22AM 45.4150 3.1950 117° Southeast 495 570 37,000  Level FlightAware
06:23AM 45.3710 3.3130 118° Southeast 495 570 37,000  Level FlightAware
06:24AM 45.3230 3.4420 118° Southeast 494 568 37,000  Level FlightAware
06:25AM 45.2800 3.5560 118° Southeast 494 568 37,000  Level FlightAware
06:25AM 45.2370 3.6710 118° Southeast 495 570 37,000  Level FlightAware
06:26AM 45.1860 3.8060 118° Southeast 495 570 37,000  Level FlightAware
06:27AM 45.1450 3.9140 118° Southeast 494 568 37,000  Level FlightAware
06:27AM 45.0990 4.0330 119° Southeast 493 567 37,000  Level FlightAware
06:28AM 45.0500 4.1610 118° Southeast 494 568 37,000  Level FlightAware
06:29AM 45.0050 4.2800 118° Southeast 493 567 37,000  Level FlightAware
06:29AM 44.9570 4.4050 118° Southeast 495 570 37,000  Level FlightAware
06:30AM 44.9160 4.5090 119° Southeast 497 572 37,000  Level FlightAware
06:31AM 44.8660 4.6370 119° Southeast 498 573 37,000  Level FlightAware
06:32AM 44.8170 4.7620 119° Southeast 498 573 37,000  Level FlightAware
06:32AM 44.7700 4.8810 119° Southeast 498 573 37,000  Level FlightAware
06:33AM 44.7260 4.9920 119° Southeast 498 573 37,000  Level FlightAware
06:34AM 44.6780 5.1140 119° Southeast 499 574 37,000  Level FlightAware
06:34AM 44.6320 5.2300 119° Southeast 498 573 37,000  Level FlightAware
06:35AM 44.5890 5.3400 119° Southeast 498 573 37,000  Level FlightAware
06:36AM 44.5430 5.4560 119° Southeast 498 573 37,000  Level FlightAware
06:36AM 44.4930 5.5800 119° Southeast 498 573 37,000  Level FlightAware
06:37AM 44.4470 5.6980 119° Southeast 500 575 37,000  Level FlightAware
06:38AM 44.4030 5.8080 119° Southeast 500 575 37,000  Level FlightAware
06:39AM 44.3490 5.9330 121° Southeast 499 574 37,000  Level FlightAware
06:39AM 44.2980 6.0400 124° Southeast 499 574 37,000  Level FlightAware
06:40AM 44.2410 6.1570 124° Southeast 500 575 37,000  Level FlightAware
06:41AM 44.1900 6.2670 123° Southeast 500 575 37,000  Level FlightAware
06:41AM 44.1340 6.3850 123° Southeast 499 574 37,000  Level FlightAware
06:42AM 44.0840 6.4900 124° Southeast 499 574 37,000  Level FlightAware
06:43AM 44.0340 6.5940 124° Southeast 499 574 37,000  Level FlightAware
06:43AM 43.9770 6.7140 123° Southeast 499 574 37,000  Level FlightAware
06:44AM 43.9360 6.7990 124° Southeast 499 574 37,000  Level FlightAware
06:45AM 43.8850 6.9060 123° Southeast 500 575 37,000  Level FlightAware
06:45AM 43.8300 7.0180 124° Southeast 502 578 37,000  Level FlightAware
06:46AM 43.7780 7.1240 124° Southeast 503 579 37,000  Level FlightAware
06:47AM 43.7210 7.2380 125° Southeast 504 580 37,000  Level FlightAware
06:47AM 43.6630 7.3560 124° Southeast 505 581 37,000  Level FlightAware
06:48AM 43.6100 7.4650 124° Southeast 505 581 37,000  Level FlightAware
06:49AM 43.5520 7.5810 125° Southeast 504 580 37,000  Level FlightAware
06:49AM 43.4990 7.6840 125° Southeast 501 577 37,000  Level FlightAware
06:50AM 43.4400 7.8020 125° Southeast 500 575 37,000  Level FlightAware
06:51AM 43.3890 7.9040 125° Southeast 498 573 37,000  Level FlightAware
06:52AM 43.3310 8.0180 125° Southeast 497 572 37,000  Level FlightAware
06:52AM 43.2780 8.1210 125° Southeast 495 570 37,000  Level FlightAware
06:53AM 43.2200 8.2370 124° Southeast 494 568 37,000  Level FlightAware
06:54AM 43.1640 8.3440 126° Southeast 494 568 37,000  Level FlightAware
06:54AM 43.1120 8.4470 125° Southeast 496 571 37,000  Level FlightAware
06:55AM 43.0620 8.5420 126° Southeast 497 572 37,000  Level FlightAware
06:56AM 43.0000 8.6630 125° Southeast 499 574 37,000  Level FlightAware
06:56AM 42.9470 8.7650 125° Southeast 500 575 37,000  Level FlightAware
06:57AM 42.8890 8.8760 125° Southeast 501 577 37,000  Level FlightAware
06:58AM 42.8310 8.9870 125° Southeast 503 579 37,000  Level FlightAware
06:59AM 42.7760 9.0930 125° Southeast 502 578 37,000  Level FlightAware
06:59AM 42.7200 9.1980 126° Southeast 503 579 37,000  Level FlightAware
07:00AM 42.6640 9.3030 126° Southeast 502 578 37,000  Level FlightAware
07:01AM 42.6020 9.4210 125° Southeast 504 580 37,000  Level FlightAware
07:01AM 42.5590 9.5290 118° Southeast 503 579 37,000  Level FlightAware
07:02AM 42.5300 9.6370 110° East 507 583 37,000  Level FlightAware
07:03AM 42.4830 9.7820 114° Southeast 503 579 37,000  Level FlightAware
07:03AM 42.4360 9.8790 123° Southeast 505 581 37,000  Level FlightAware
07:04AM 42.3730 10.0130 122° Southeast 508 585 37,000  Level FlightAware
07:05AM 42.3270 10.1160 121° Southeast 510 587 37,000  Level FlightAware
07:06AM 42.2750 10.2310 121° Southeast 511 588 37,000  Level FlightAware
07:06AM 42.2250 10.3430 121° Southeast 511 588 37,000  Level FlightAware
07:07AM 42.1660 10.4660 123° Southeast 512 589 37,000  Level FlightAware
07:08AM 42.1190 10.5620 123° Southeast 512 589 37,000  Level FlightAware
07:08AM 42.0610 10.6790 124° Southeast 513 590 37,000  Level FlightAware
07:09AM 41.9930 10.8210 123° Southeast 510 587 37,000  Level FlightAware
07:10AM 41.9350 10.9380 124° Southeast 511 588 37,000  Level FlightAware
07:11AM 41.8770 11.0590 123° Southeast 518 596 37,000  Level FlightAware
07:11AM 41.8370 11.1580 118° Southeast 518 596 37,000  Level FlightAware
07:12AM 41.7880 11.2870 117° Southeast 519 597 37,000  Level FlightAware
07:13AM 41.7450 11.4020 117° Southeast 514 592 37,000  Level FlightAware
07:13AM 41.6980 11.5280 117° Southeast 515 593 37,000  Level FlightAware
07:14AM 41.6540 11.6450 117° Southeast 515 593 37,000  Level FlightAware
07:15AM 41.6100 11.7590 117° Southeast 516 594 37,000  Level FlightAware
07:16AM 41.5550 11.9010 117° Southeast 516 594 37,000  Level FlightAware
07:16AM 41.5110 12.0150 117° Southeast 514 592 37,000  Level FlightAware
07:17AM 41.4670 12.1280 117° Southeast 513 590 37,000  Level FlightAware
07:18AM 41.4180 12.2560 117° Southeast 512 589 37,000  Level FlightAware
07:19AM 41.3610 12.4020 117° Southeast 513 590 37,000  Level FlightAware
07:19AM 41.3110 12.5290 118° Southeast 517 595 37,000  Level FlightAware
07:20AM 41.2520 12.6810 117° Southeast 517 595 37,000  Level FlightAware
07:21AM 41.2180 12.7680 117° Southeast 517 595 37,000  Level FlightAware
07:21AM 41.1750 12.8770 118° Southeast 517 595 37,000  Level FlightAware
07:22AM 41.1300 12.9890 118° Southeast 519 597 37,000  Level FlightAware
07:23AM 41.0780 13.1210 118° Southeast 521 600 37,000  Level FlightAware
07:24AM 41.0340 13.2310 118° Southeast 522 601 37,000  Level FlightAware
07:24AM 40.9870 13.3470 118° Southeast 524 603 37,000  Level FlightAware
07:25AM 40.9360 13.4740 118° Southeast 526 605 37,000  Level FlightAware
07:26AM 40.8910 13.5840 118° Southeast 527 606 37,000  Level FlightAware
07:26AM 40.8420 13.7060 118° Southeast 529 609 37,000  Level FlightAware
07:27AM 40.7900 13.8300 119° Southeast 527 606 37,000  Level FlightAware
07:28AM 40.7390 13.9580 118° Southeast 529 609 37,000  Level FlightAware
07:28AM 40.6920 14.0680 119° Southeast 529 609 37,000  Level FlightAware
07:29AM 40.6400 14.1960 118° Southeast 528 608 37,000  Level FlightAware
07:30AM 40.5950 14.3020 119° Southeast 528 608 37,000  Level FlightAware
07:31AM 40.5340 14.4220 124° Southeast 528 608 37,000  Level FlightAware
07:31AM 40.4850 14.5260 122° Southeast 532 612 37,000  Level FlightAware
07:32AM 40.4300 14.6560 119° Southeast 533 613 37,000  Level FlightAware
07:33AM 40.3830 14.7700 118° Southeast 536 617 37,000  Level FlightAware
07:33AM 40.3310 14.8990 118° Southeast 537 618 37,000  Level FlightAware
07:34AM 40.2870 15.0050 119° Southeast 539 620 37,000  Level FlightAware
07:35AM 40.2390 15.1200 119° Southeast 540 621 37,000  Level FlightAware
07:35AM 40.1860 15.2490 118° Southeast 540 621 37,000  Level FlightAware
07:36AM 40.1310 15.3810 119° Southeast 541 623 37,000  Level FlightAware
07:37AM 40.0800 15.5020 119° Southeast 541 623 37,000  Level FlightAware
07:38AM 40.0330 15.6130 119° Southeast 541 623 37,000  Level FlightAware
07:38AM 39.9830 15.7330 119° Southeast 541 623 37,000  Level FlightAware
07:39AM 39.9290 15.8620 119° Southeast 541 623 37,000  Level FlightAware
07:40AM 39.8810 15.9730 119° Southeast 541 623 37,000  Level FlightAware
07:40AM 39.8350 16.0820 119° Southeast 542 624 37,000  Level FlightAware
07:41AM 39.7780 16.2150 119° Southeast 543 625 37,000  Level FlightAware
07:42AM 39.7240 16.3380 120° Southeast 544 626 37,000  Level FlightAware
07:42AM 39.6750 16.4520 119° Southeast 546 628 37,000  Level FlightAware
07:43AM 39.6220 16.5720 120° Southeast 547 629 37,000  Level FlightAware
07:44AM 39.5670 16.6970 120° Southeast 547 629 37,000  Level FlightAware
07:45AM 39.5180 16.8080 120° Southeast 547 629 37,000  Level FlightAware
07:45AM 39.4610 16.9370 120° Southeast 549 632 37,000  Level FlightAware
07:46AM 39.4110 17.0500 120° Southeast 548 631 37,000  Level FlightAware
07:47AM 39.3610 17.1640 120° Southeast 548 631 37,000  Level FlightAware
07:47AM 39.3050 17.2880 120° Southeast 549 632 37,000  Level FlightAware
07:48AM 39.2530 17.4050 120° Southeast 550 633 37,000  Level FlightAware
07:49AM 39.2050 17.5130 120° Southeast 552 635 37,000  Level FlightAware
07:49AM 39.1540 17.6270 120° Southeast 553 636 37,000  Level FlightAware
07:50AM 39.1100 17.7210 121° Southeast 553 636 37,000  Level FlightAware
07:51AM 39.0600 17.8320 120° Southeast 553 636 37,000  Level FlightAware
07:52AM 38.9830 18.0020 120° Southeast 554 638 37,000  Level FlightAware
07:52AM 38.9330 18.1100 121° Southeast 554 638 37,000  Level FlightAware
07:53AM 38.8930 18.1970 121° Southeast 554 638 37,000  Level FlightAware
07:54AM 38.8410 18.3080 121° Southeast 554 638 37,000  Level FlightAware
07:55AM 38.7640 18.4740 121° Southeast 553 636 37,000  Level FlightAware
07:55AM 38.7090 18.5940 120° Southeast 552 635 37,000  Level FlightAware
07:56AM 38.6440 18.7540 117° Southeast 556 640 37,000  Level FlightAware
07:57AM 38.6040 18.8790 112° Southeast 559 643 37,000  Level FlightAware
07:57AM 38.5650 19.0160 110° East 561 646 37,000  Level FlightAware
07:58AM 38.5240 19.1560 110° East 559 643 37,000  Level FlightAware
07:59AM 38.4860 19.2790 112° Southeast 560 644 37,000  Level FlightAware
08:00AM 38.4440 19.4180 111° Southeast 559 643 37,000  Level FlightAware
08:00AM 38.4100 19.5260 112° Southeast 560 644 37,000  Level FlightAware
08:01AM 38.3680 19.6650 111° Southeast 561 646 37,000  Level FlightAware
08:02AM 38.3300 19.7860 112° Southeast 563 648 37,000  Level FlightAware
08:02AM 38.2860 19.9290 111° Southeast 569 655 37,000  Level FlightAware
08:03AM 38.2480 20.0540 111° Southeast 570 656 37,000  Level FlightAware
08:04AM 38.2040 20.1940 112° Southeast 571 657 37,000  Level FlightAware
08:04AM 38.1650 20.3190 112° Southeast 572 658 37,000  Level FlightAware
08:05AM 38.1300 20.4280 112° Southeast 572 658 37,000  Level FlightAware
08:06AM 38.0950 20.5400 112° Southeast 572 658 37,000  Level FlightAware
08:06AM 38.0540 20.6710 112° Southeast 573 659 37,000  Level FlightAware
08:07AM 38.0160 20.7890 112° Southeast 573 659 37,000  Level FlightAware
08:08AM 37.9700 20.9360 112° Southeast 573 659 37,000 240 Level FlightAware
08:08AM 37.9280 21.0630 113° Southeast 576 663 37,400 660 Climbing FlightAware
08:09AM 37.8860 21.1940 112° Southeast 575 662 38,000 360 Climbing FlightAware
08:10AM 37.8420 21.3310 112° Southeast 572 658 38,000  Level FlightAware
08:10AM 37.8030 21.4510 112° Southeast 570 656 38,000  Level FlightAware
08:11AM 37.7590 21.5870 112° Southeast 569 655 38,000  Level FlightAware
08:12AM 37.7180 21.7090 113° Southeast 568 654 38,000  Level FlightAware
08:13AM 37.6720 21.8500 112° Southeast 567 652 38,000  Level FlightAware
08:13AM 37.6330 21.9660 113° Southeast 566 651 38,000  Level FlightAware
08:14AM 37.5880 22.1020 113° Southeast 560 644 38,000  Level FlightAware
08:15AM 37.5470 22.2250 113° Southeast 559 643 38,000  Level FlightAware
08:15AM 37.5030 22.3570 113° Southeast 562 647 38,000  Level FlightAware
08:16AM 37.4630 22.4750 113° Southeast 561 646 38,000  Level FlightAware
08:17AM 37.4170 22.6090 113° Southeast 560 644 38,000 -240 Level FlightAware
08:17AM 37.3760 22.7320 113° Southeast 560 644 37,700 -780 Descending FlightAware
08:18AM 37.3340 22.8550 113° Southeast 571 657 37,000 -540 Descending FlightAware
08:19AM 37.2880 22.9860 114° Southeast 560 644 37,000  Level FlightAware
08:20AM 37.2450 23.1130 113° Southeast 554 638 37,000  Level FlightAware
08:20AM 37.2030 23.2340 114° Southeast 553 636 37,000  Level FlightAware
08:21AM 37.1620 23.3550 113° Southeast 554 638 37,000  Level FlightAware
08:22AM 37.1160 23.4840 114° Southeast 556 640 37,000  Level FlightAware
08:22AM 37.0710 23.6110 114° Southeast 558 642 37,000  Level FlightAware
08:23AM 37.0300 23.7300 113° Southeast 562 647 37,000  Level FlightAware
08:24AM 36.9860 23.8550 114° Southeast 564 649 37,000  Level FlightAware
08:24AM 36.9420 23.9770 114° Southeast 564 649 37,000  Level FlightAware
08:25AM 36.8800 24.1500 114° Southeast 564 649 37,000  Level FlightAware
08:26AM 36.8360 24.2750 114° Southeast 564 649 37,000  Level FlightAware
08:27AM 36.8000 24.3730 115° Southeast 565 650 37,000  Level FlightAware
08:28AM 36.7450 24.5280 114° Southeast 568 654 37,000  Level FlightAware
08:28AM 36.6980 24.6570 114° Southeast 571 657 37,000  Level FlightAware
08:29AM 36.6570 24.7670 115° Southeast 571 657 37,000  Level FlightAware
08:30AM 36.6100 24.8990 114° Southeast 573 659 37,000  Level FlightAware
08:30AM 36.5800 24.9770 116° Southeast 573 659 37,000  Level FlightAware
08:31AM 36.5400 25.0880 114° Southeast 573 659 37,000  Level FlightAware
08:31AM 36.4960 25.2080 114° Southeast 575 662 37,000  Level FlightAware
08:32AM 36.4520 25.3250 115° Southeast 577 664 37,000  Level FlightAware
08:33AM 36.4020 25.4600 115° Southeast 575 662 37,000  Level FlightAware
08:33AM 36.3580 25.5800 114° Southeast 575 662 37,000  Level FlightAware
08:34AM 36.3080 25.7110 115° Southeast 574 661 37,000  Level FlightAware
08:35AM 36.2580 25.8450 115° Southeast 573 659 37,000  Level FlightAware
08:36AM 36.2130 25.9630 115° Southeast 573 659 37,000  Level FlightAware
08:36AM 36.1670 26.0850 115° Southeast 571 657 37,000  Level FlightAware
08:37AM 36.1220 26.2000 116° Southeast 571 657 37,000  Level FlightAware
08:38AM 36.0710 26.3330 115° Southeast 573 659 37,000  Level FlightAware
08:38AM 36.0310 26.4390 115° Southeast 572 658 37,000  Level FlightAware
08:39AM 35.9840 26.5600 116° Southeast 573 659 37,000  Level FlightAware
08:40AM 35.9420 26.6690 115° Southeast 571 657 37,000  Level FlightAware
08:40AM 35.8920 26.7980 116° Southeast 569 655 37,000  Level FlightAware
08:41AM 35.8450 26.9180 116° Southeast 568 654 37,000  Level FlightAware
08:42AM 35.7980 27.0380 116° Southeast 569 655 37,000  Level FlightAware
08:43AM 35.7430 27.1810 115° Southeast 569 655 37,000  Level FlightAware
08:44AM 35.6380 27.4450 116° Southeast 564 649 37,000  Level FlightAware
08:45AM 35.5910 27.5620 116° Southeast 561 646 37,000  Level FlightAware
08:45AM 35.5500 27.6660 116° Southeast 561 646 37,000  Level FlightAware
08:46AM 35.5150 27.7540 116° Southeast 561 646 37,000  Level FlightAware
08:47AM 35.4820 27.8370 116° Southeast 561 646 37,000  Level FlightAware
08:48AM 35.3770 28.0930 117° Southeast 557 641 37,000  Level FlightAware
08:48AM 35.3260 28.2200 116° Southeast 556 640 37,000  Level FlightAware
08:49AM 35.2770 28.3410 116° Southeast 556 640 37,000  Level FlightAware
08:50AM 35.2260 28.4680 116° Southeast 556 640 37,000  Level FlightAware
08:51AM 35.1850 28.5660 117° Southeast 554 638 37,000  Level FlightAware
08:51AM 35.1340 28.6920 116° Southeast 554 638 37,000  Level FlightAware
08:52AM 35.1020 28.7670 118° Southeast 552 635 37,000  Level FlightAware
08:53AM 35.0370 28.9230 117° Southeast 552 635 37,000  Level FlightAware
08:53AM 34.9880 29.0420 117° Southeast 551 634 37,000  Level FlightAware
08:54AM 34.9400 29.1580 117° Southeast 550 633 37,000  Level FlightAware
08:55AM 34.8920 29.2710 117° Southeast 548 631 37,000  Level FlightAware
08:55AM 34.8470 29.3780 117° Southeast 544 626 37,000  Level FlightAware
08:56AM 34.7830 29.5310 117° Southeast 542 624 37,000  Level FlightAware
08:57AM 34.7350 29.6460 117° Southeast 542 624 37,000  Level FlightAware
08:58AM 34.6840 29.7660 117° Southeast 543 625 37,000  Level FlightAware
08:59AM 34.6380 29.8700 118° Southeast 544 626 37,000  Level FlightAware
08:59AM 34.5950 29.9780 116° Southeast 545 627 37,000 -660 Level FlightAware
09:00AM 34.5180 30.1370 120° Southeast 550 633 36,000 -1,260 Descending FlightAware
09:01AM 34.4590 30.2590 120° Southeast 545 627 35,000 -1,260 Descending FlightAware
09:02AM 34.4060 30.3680 120° Southeast 549 632 34,200 -1,140 Descending FlightAware
09:02AM 34.3490 30.4840 121° Southeast 548 631 33,400 -840 Descending FlightAware
09:03AM 34.2960 30.5920 121° Southeast 545 627 33,000 -300 Descending FlightAware
09:04AM 34.2400 30.7070 120° Southeast 542 624 33,000  Level FlightAware
09:04AM 34.1950 30.8010 120° Southeast 542 624 33,000  Level FlightAware
09:05AM 34.1360 30.9180 121° Southeast 543 625 33,000  Level FlightAware
09:06AM 34.0790 31.0360 120° Southeast 544 626 33,000  Level FlightAware
09:06AM 34.0310 31.1350 120° Southeast 545 627 33,000  Level FlightAware
09:07AM 33.9760 31.2450 121° Southeast 543 625 33,000  Level FlightAware
09:08AM 33.9230 31.3520 121° Southeast 545 627 33,000  Level FlightAware
09:09AM 33.8650 31.4680 121° Southeast 546 628 33,000  Level FlightAware
09:09AM 33.8100 31.5780 121° Southeast 548 631 33,000  Level FlightAware
09:10AM 33.7520 31.6940 121° Southeast 548 631 33,000  Level FlightAware
09:10AM 33.7180 31.7620 121° Southeast 548 631 33,000  Level FlightAware
09:11AM 33.6670 31.8650 121° Southeast 547 629 33,000  Level FlightAware
09:12AM 33.6070 31.9820 122° Southeast 545 627 33,000  Level FlightAware
09:12AM 33.5550 32.0830 122° Southeast 544 626 33,000  Level FlightAware
09:13AM 33.4940 32.2020 122° Southeast 542 624 33,000  Level FlightAware
09:14AM 33.4440 32.3000 121° Southeast 542 624 33,000  Level FlightAware
09:14AM 33.4080 32.3730 121° Southeast 541 623 33,000  Level FlightAware
09:15AM 33.3490 32.4880 122° Southeast 540 621 33,000  Level FlightAware
09:16AM 33.2990 32.5860 121° Southeast 544 626 33,000  Level FlightAware
09:16AM 33.2400 32.6990 122° Southeast 545 627 33,000 -420 Level FlightAware
09:17AM 33.1750 32.8240 122° Southeast 543 625 32,400 -1,380 Descending FlightAware
09:18AM 33.1220 32.9250 122° Southeast 534 615 31,000 -2,220 Descending FlightAware
09:19AM 33.0780 33.0120 121° Southeast 526 605 29,600 -1,440 Descending FlightAware
09:19AM 33.0200 33.1290 121° Southeast 508 585 29,000 -420 Descending FlightAware
09:20AM 32.9650 33.2340 122° Southeast 511 588 29,000 -1,140 Level FlightAware
09:21AM 32.9200 33.3230 121° Southeast 510 587 27,500 -3,600 Descending FlightAware
09:21AM 32.8590 33.4400 122° Southeast 524 603 23,900 -3,600 Descending FlightAware
09:22AM 32.8130 33.5320 121° Southeast 504 580 22,300 -2,160 Descending FlightAware
09:23AM 32.7600 33.6340 122° Southeast 489 563 21,000 -960 Descending FlightAware
09:24AM 32.7100 33.7300 122° Southeast 486 559 21,000 -1,560 Level FlightAware
09:24AM 32.6610 33.8240 122° Southeast 481 554 18,800 -3,240 Descending FlightAware
09:25AM 32.6180 33.9050 122° Southeast 480 552 16,800 -3,180 Descending FlightAware
09:26AM 32.5630 34.0110 122° Southeast 468 539 14,400 -2,820 Descending FlightAware
09:26AM 32.5160 34.1010 122° Southeast 447 514 12,700 -2,520 Descending FlightAware
09:27AM 32.4660 34.1820 126° Southeast 424 488 10,900 -2,580 Descending FlightAware
09:27AM 32.4300 34.2260 134° Southeast 415 478 9,800 -2,160 Descending FlightAware
09:28AM 32.3980 34.2630 136° Southeast 398 458 9,100 -1,380 Descending FlightAware
09:28AM 32.3740 34.2910 135° Southeast 381 438 8,800 -960 Descending FlightAware
09:29AM 32.3420 34.3290 135° Southeast 357 411 8,400 -540 Descending FlightAware
09:29AM 32.3050 34.3730 135° Southeast 357 411 8,300 -120 Descending FlightAware
09:30AM 32.2830 34.3990 135° Southeast 357 411 8,300  Level FlightAware
09:31AM 32.2260 34.4660 135° Southeast 357 411 8,300  Level FlightAware
09:31AM 32.2140 34.4800 135° Southeast 357 411 8,300  Level FlightAware
09:33AM 32.0732 34.7254 115° Southeast  Level FlightAware Approximate
09:34AM 32.0000 34.8667 125° Southeast  Level FlightAware Approximate
09:35AM 32.0095 34.8769 125° Southeast  Level Estimated
09:36AM 32.0095 34.8769 125° Southeast  Level Estimated
09:37AM 32.0095 34.8769 125° Southeast  Level Estimated
09:38AM 32.0095 34.8769 125° Southeast  Level Estimated
09:39AM 32.0095 34.8769 125° Southeast  Level Estimated
09:40AM 32.0095 34.8769 125° Southeast  Level Estimated
09:41AM 32.0095 34.8769 125° Southeast  Level Estimated